createdAt,value
2022-08-29T00:01:38.403Z,15.68
2022-08-29T00:03:43.279Z,16.40
2022-08-29T00:05:50.117Z,16.90
2022-08-29T00:07:57.973Z,14.70
2022-08-29T00:10:02.658Z,17.23
2022-08-29T00:12:09.108Z,16.90
2022-08-29T00:14:23.224Z,25.58
2022-08-29T00:16:30.910Z,17.60
2022-08-29T00:18:36.831Z,20.13
2022-08-29T00:20:45.135Z,19.20
2022-08-29T00:22:49.676Z,18.13
2022-08-29T00:24:54.169Z,18.42
2022-08-29T00:27:01.461Z,16.30
2022-08-29T00:29:06.329Z,16.35
2022-08-29T00:31:10.858Z,23.48
2022-08-29T00:33:15.822Z,19.90
2022-08-29T00:35:23.565Z,20.48
2022-08-29T00:37:28.256Z,18.00
2022-08-29T00:39:35.070Z,22.00
2022-08-29T00:41:39.869Z,22.30
2022-08-29T00:43:45.549Z,19.60
2022-08-29T00:46:08.188Z,16.63
2022-08-29T00:48:15.678Z,17.70
2022-08-29T00:50:35.965Z,16.65
2022-08-29T00:52:45.986Z,13.38
2022-08-29T00:54:52.261Z,13.93
2022-08-29T00:56:56.900Z,12.75
2022-08-29T00:59:07.851Z,13.27
2022-08-29T01:01:12.238Z,11.50
2022-08-29T01:03:16.922Z,14.95
2022-08-29T01:05:24.827Z,12.30
2022-08-29T01:07:29.815Z,12.52
2022-08-29T01:09:34.356Z,8.00
2022-08-29T01:11:53.899Z,10.05
2022-08-29T01:14:00.131Z,9.13
2022-08-29T01:16:05.299Z,9.98
2022-08-29T01:18:13.016Z,9.27
2022-08-29T01:20:36.065Z,9.35
2022-08-29T01:23:21.735Z,8.55
2022-08-29T01:25:27.609Z,7.45
2022-08-29T01:27:32.749Z,9.15
2022-08-29T01:29:39.314Z,7.55
2022-08-29T01:31:56.625Z,7.13
2022-08-29T01:34:02.262Z,7.20
2022-08-29T01:36:09.427Z,8.23
2022-08-29T01:38:28.606Z,6.25
2022-08-29T01:40:33.601Z,6.22
2022-08-29T01:42:40.161Z,7.45
2022-08-29T01:44:50.811Z,5.75
2022-08-29T01:47:01.828Z,6.05
2022-08-29T01:49:11.012Z,5.93
2022-08-29T01:51:17.360Z,6.68
2022-08-29T01:53:21.642Z,7.72
2022-08-29T01:55:28.125Z,9.32
2022-08-29T01:57:34.348Z,9.90
2022-08-29T01:59:39.427Z,5.15
2022-08-29T02:02:24.594Z,3.63
2022-08-29T02:04:31.172Z,4.03
2022-08-29T02:06:35.808Z,3.40
2022-08-29T02:08:41.880Z,3.35
2022-08-29T02:10:49.238Z,2.33
2022-08-29T02:12:54.969Z,1.70
2022-08-29T02:15:02.952Z,2.58
2022-08-29T02:17:09.363Z,2.30
2022-08-29T02:19:13.902Z,4.40
2022-08-29T02:21:21.558Z,2.85
2022-08-29T02:23:31.160Z,1.80
2022-08-29T02:25:45.314Z,2.42
2022-08-29T02:27:55.685Z,2.50
2022-08-29T02:30:02.228Z,2.90
2022-08-29T02:32:15.889Z,7.05
2022-08-29T02:34:22.746Z,2.97
2022-08-29T02:36:30.842Z,3.10
2022-08-29T02:38:37.285Z,3.40
2022-08-29T02:40:44.198Z,3.15
2022-08-29T02:42:48.890Z,5.13
2022-08-29T02:44:55.166Z,4.47
2022-08-29T02:47:01.680Z,3.90
2022-08-29T02:49:06.459Z,3.20
2022-08-29T02:51:19.574Z,1.25
2022-08-29T02:53:28.227Z,3.17
2022-08-29T02:55:32.543Z,2.30
2022-08-29T02:57:38.909Z,5.55
2022-08-29T02:59:45.466Z,4.50
2022-08-29T03:01:49.863Z,1.98
2022-08-29T03:03:54.724Z,1.77
2022-08-29T03:06:01.292Z,2.05
2022-08-29T03:08:08.960Z,4.25
2022-08-29T03:10:13.262Z,2.88
2022-08-29T03:12:21.343Z,5.53
2022-08-29T03:14:26.259Z,2.85
2022-08-29T03:16:34.649Z,3.13
2022-08-29T03:18:42.003Z,5.25
2022-08-29T03:20:46.278Z,2.67
2022-08-29T03:22:51.795Z,3.13
2022-08-29T03:24:58.310Z,12.43
2022-08-29T03:27:02.794Z,4.43
2022-08-29T03:29:09.156Z,4.50
2022-08-29T03:31:16.097Z,2.75
2022-08-29T03:33:20.451Z,2.10
2022-08-29T03:35:26.741Z,3.83
2022-08-29T03:37:33.536Z,2.30
2022-08-29T03:39:38.996Z,4.55
2022-08-29T03:41:45.459Z,2.55
2022-08-29T03:43:52.094Z,3.92
2022-08-29T03:45:56.718Z,3.00
2022-08-29T03:48:02.938Z,3.85
2022-08-29T03:50:10.191Z,2.92
2022-08-29T03:52:14.822Z,3.10
2022-08-29T03:54:21.642Z,3.03
2022-08-29T03:56:26.315Z,3.70
2022-08-29T03:58:31.169Z,2.97
2022-08-29T04:00:37.536Z,6.18
2022-08-29T04:02:48.367Z,4.95
2022-08-29T04:05:07.847Z,3.22
2022-08-29T04:07:15.866Z,2.92
2022-08-29T04:09:22.463Z,3.60
2022-08-29T04:11:27.484Z,3.83
2022-08-29T04:13:33.784Z,2.92
2022-08-29T04:15:41.266Z,3.08
2022-08-29T04:17:53.358Z,2.60
2022-08-29T04:19:58.214Z,2.63
2022-08-29T04:22:05.163Z,3.72
2022-08-29T04:24:10.039Z,4.25
2022-08-29T04:26:35.181Z,2.60
2022-08-29T04:28:40.816Z,2.08
2022-08-29T04:30:51.684Z,1.60
2022-08-29T04:32:59.400Z,2.28
2022-08-29T04:35:06.106Z,2.92
2022-08-29T04:37:10.816Z,5.38
2022-08-29T04:39:15.755Z,2.63
2022-08-29T04:41:22.778Z,3.05
2022-08-29T04:43:27.163Z,4.15
2022-08-29T04:45:34.525Z,1.90
2022-08-29T04:47:41.066Z,5.22
2022-08-29T04:49:45.551Z,2.28
2022-08-29T04:51:53.411Z,2.33
2022-08-29T04:54:00.217Z,3.05
2022-08-29T04:56:08.067Z,2.58
2022-08-29T04:58:16.348Z,3.50
2022-08-29T05:00:25.084Z,4.15
2022-08-29T05:02:29.477Z,4.03
2022-08-29T05:04:36.139Z,3.00
2022-08-29T05:06:41.997Z,3.63
2022-08-29T05:08:46.977Z,2.58
2022-08-29T05:10:59.443Z,2.60
2022-08-29T05:13:04.911Z,2.85
2022-08-29T05:15:09.901Z,2.38
2022-08-29T05:17:16.690Z,2.67
2022-08-29T05:19:25.235Z,2.38
2022-08-29T05:21:35.812Z,3.17
2022-08-29T05:23:43.054Z,3.05
2022-08-29T05:25:50.063Z,2.42
2022-08-29T05:27:54.377Z,2.53
2022-08-29T05:30:00.953Z,4.43
2022-08-29T05:32:07.575Z,4.60
2022-08-29T05:34:31.950Z,3.72
2022-08-29T05:36:40.507Z,3.97
2022-08-29T05:38:47.030Z,3.10
2022-08-29T05:40:51.584Z,2.70
2022-08-29T05:42:58.230Z,5.90
2022-08-29T05:45:06.609Z,3.95
2022-08-29T05:47:12.420Z,2.55
2022-08-29T05:49:18.815Z,2.55
2022-08-29T05:51:27.400Z,4.30
2022-08-29T05:53:31.936Z,2.58
2022-08-29T05:55:44.739Z,2.17
2022-08-29T05:57:54.074Z,2.15
2022-08-29T05:59:58.940Z,1.92
2022-08-29T06:02:05.700Z,2.50
2022-08-29T06:04:10.569Z,2.22
2022-08-29T06:06:15.405Z,2.90
2022-08-29T06:08:21.751Z,1.85
2022-08-29T06:10:28.163Z,2.55
2022-08-29T06:12:32.967Z,2.25
2022-08-29T06:14:39.276Z,2.53
2022-08-29T06:16:45.650Z,5.70
2022-08-29T06:18:50.207Z,2.70
2022-08-29T06:20:58.455Z,2.42
2022-08-29T06:23:05.015Z,2.28
2022-08-29T06:25:35.145Z,3.30
2022-08-29T06:27:36.859Z,3.22
2022-08-29T06:29:44.000Z,2.05
2022-08-29T06:31:48.415Z,2.25
2022-08-29T06:34:02.020Z,2.90
2022-08-29T06:36:10.182Z,3.33
2022-08-29T06:38:15.297Z,2.53
2022-08-29T06:40:22.077Z,3.72
2022-08-29T06:42:28.774Z,3.60
2022-08-29T06:44:33.397Z,4.03
2022-08-29T06:46:44.607Z,3.60
2022-08-29T06:48:51.274Z,2.58
2022-08-29T06:50:55.645Z,3.13
2022-08-29T06:53:14.737Z,3.10
2022-08-29T06:55:28.612Z,5.03
2022-08-29T06:57:33.411Z,2.88
2022-08-29T06:59:39.697Z,3.80
2022-08-29T07:01:44.660Z,4.65
2022-08-29T07:03:49.085Z,2.28
2022-08-29T07:05:55.773Z,5.22
2022-08-29T07:08:02.286Z,4.25
2022-08-29T07:10:07.401Z,2.42
2022-08-29T07:12:13.793Z,2.28
2022-08-29T07:14:20.738Z,4.55
2022-08-29T07:16:26.137Z,4.43
2022-08-29T07:18:32.907Z,2.78
2022-08-29T07:20:39.893Z,4.40
2022-08-29T07:22:52.186Z,4.97
2022-08-29T07:24:58.614Z,3.88
2022-08-29T07:27:03.061Z,6.00
2022-08-29T07:29:11.201Z,3.60
2022-08-29T07:31:15.648Z,3.42
2022-08-29T07:33:22.076Z,3.40
2022-08-29T07:35:30.347Z,3.90
2022-08-29T07:37:35.247Z,3.65
2022-08-29T07:39:42.850Z,2.95
2022-08-29T07:41:47.446Z,2.88
2022-08-29T07:43:54.428Z,4.00
2022-08-29T07:46:00.007Z,4.97
2022-08-29T07:48:04.396Z,3.70
2022-08-29T07:50:15.258Z,5.10
2022-08-29T07:52:19.875Z,3.20
2022-08-29T07:54:24.410Z,4.80
2022-08-29T07:56:40.548Z,4.68
2022-08-29T07:58:47.356Z,3.08
2022-08-29T08:00:51.805Z,3.65
2022-08-29T08:02:58.040Z,3.05
2022-08-29T08:05:06.745Z,2.97
2022-08-29T08:07:14.040Z,2.53
2022-08-29T08:09:21.218Z,2.90
2022-08-29T08:11:28.214Z,2.60
2022-08-29T08:13:33.104Z,3.72
2022-08-29T08:15:39.715Z,5.95
2022-08-29T08:17:44.822Z,6.82
2022-08-29T08:19:49.201Z,4.45
2022-08-29T08:21:54.322Z,3.75
2022-08-29T08:24:02.724Z,3.88
2022-08-29T08:26:08.206Z,3.25
2022-08-29T08:28:14.838Z,3.63
2022-08-29T08:30:21.986Z,3.72
2022-08-29T08:32:32.543Z,2.80
2022-08-29T08:34:39.343Z,4.07
2022-08-29T08:36:44.406Z,3.10
2022-08-29T08:38:49.611Z,4.15
2022-08-29T08:41:11.830Z,3.05
2022-08-29T08:43:20.721Z,3.33
2022-08-29T08:45:43.055Z,4.22
2022-08-29T08:48:01.699Z,3.42
2022-08-29T08:50:29.864Z,6.75
2022-08-29T08:53:21.840Z,3.17
2022-08-29T08:55:46.362Z,6.03
2022-08-29T08:58:17.182Z,9.90
2022-08-29T09:00:22.288Z,2.92
2022-08-29T09:02:52.204Z,2.30
2022-08-29T09:05:29.319Z,2.60
2022-08-29T09:08:00.290Z,1.63
2022-08-29T09:10:26.317Z,2.03
2022-08-29T09:12:58.520Z,2.55
2022-08-29T09:15:15.447Z,3.40
2022-08-29T09:17:51.649Z,4.45
2022-08-29T09:19:56.765Z,2.25
2022-08-29T09:22:18.595Z,3.70
2022-08-29T09:24:42.098Z,2.50
2022-08-29T09:26:46.717Z,4.47
2022-08-29T09:28:56.379Z,4.60
2022-08-29T09:31:27.794Z,7.13
2022-08-29T09:34:01.571Z,5.22
2022-08-29T09:36:08.106Z,2.80
2022-08-29T09:38:25.058Z,3.47
2022-08-29T09:41:04.997Z,5.65
2022-08-29T09:43:12.827Z,3.83
2022-08-29T09:45:27.614Z,3.10
2022-08-29T09:47:34.092Z,3.65
2022-08-29T09:49:41.016Z,5.35
2022-08-29T09:51:47.713Z,6.65
2022-08-29T09:53:54.818Z,5.75
2022-08-29T09:56:01.189Z,11.27
2022-08-29T09:58:35.201Z,6.93
2022-08-29T10:00:51.286Z,8.38
2022-08-29T10:02:58.431Z,4.50
2022-08-29T10:05:13.291Z,5.28
2022-08-29T10:07:27.485Z,5.38
2022-08-29T10:09:32.155Z,4.63
2022-08-29T10:12:01.318Z,6.97
2022-08-29T10:14:12.428Z,6.25
2022-08-29T10:16:40.810Z,4.68
2022-08-29T10:18:54.303Z,6.35
2022-08-29T10:21:32.603Z,4.93
2022-08-29T10:24:00.783Z,6.45
2022-08-29T10:26:31.878Z,8.98
2022-08-29T10:28:44.185Z,5.40
2022-08-29T10:31:06.437Z,5.45
2022-08-29T10:33:33.750Z,8.05
2022-08-29T10:35:57.387Z,8.63
2022-08-29T10:38:18.180Z,5.22
2022-08-29T10:40:43.536Z,8.68
2022-08-29T10:42:52.700Z,8.00
2022-08-29T10:45:21.535Z,8.57
2022-08-29T10:47:45.023Z,8.18
2022-08-29T10:50:27.577Z,5.50
2022-08-29T10:53:10.948Z,6.13
2022-08-29T10:55:32.120Z,5.80
2022-08-29T10:58:08.628Z,5.72
2022-08-29T11:00:27.900Z,10.38
2022-08-29T11:03:04.236Z,6.82
2022-08-29T11:05:12.608Z,15.75
2022-08-29T11:07:22.120Z,8.25
2022-08-29T11:09:44.606Z,8.50
2022-08-29T11:12:17.583Z,9.10
2022-08-29T11:14:30.076Z,11.13
2022-08-29T11:16:45.010Z,13.87
2022-08-29T11:19:22.719Z,17.08
2022-08-29T11:22:02.280Z,13.23
2022-08-29T11:24:07.739Z,18.60
2022-08-29T11:26:45.830Z,12.50
2022-08-29T11:29:05.696Z,11.32
2022-08-29T11:31:19.406Z,7.50
2022-08-29T11:33:51.919Z,10.48
2022-08-29T11:36:28.326Z,9.60
2022-08-29T11:39:04.580Z,9.38
2022-08-29T11:41:29.005Z,8.77
2022-08-29T11:43:45.474Z,11.32
2022-08-29T11:46:03.301Z,9.05
2022-08-29T11:48:31.187Z,7.47
2022-08-29T11:50:38.913Z,10.07
2022-08-29T11:53:01.586Z,9.90
2022-08-29T11:55:34.605Z,8.60
2022-08-29T11:57:52.699Z,6.97
2022-08-29T11:59:59.655Z,6.45
2022-08-29T12:02:06.639Z,8.10
2022-08-29T12:04:12.757Z,11.65
2022-08-29T12:06:56.713Z,9.73
2022-08-29T12:09:41.488Z,6.70
2022-08-29T12:12:18.138Z,9.05
2022-08-29T12:14:38.262Z,9.88
2022-08-29T12:16:50.069Z,8.20
2022-08-29T12:19:00.674Z,8.48
2022-08-29T12:21:19.413Z,10.90
2022-08-29T12:23:37.249Z,8.75
2022-08-29T12:26:22.092Z,7.40
2022-08-29T12:28:48.977Z,8.05
2022-08-29T12:31:17.135Z,10.95
2022-08-29T12:33:47.069Z,11.52
2022-08-29T12:36:19.398Z,7.53
2022-08-29T12:38:41.860Z,11.00
2022-08-29T12:43:44.977Z,9.60
2022-08-29T12:45:49.464Z,7.10
2022-08-29T12:48:09.584Z,7.47
2022-08-29T12:50:19.702Z,7.40
2022-08-29T12:52:31.829Z,6.93
2022-08-29T12:54:41.454Z,7.22
2022-08-29T12:56:53.068Z,8.75
2022-08-29T12:59:03.614Z,12.25
2022-08-29T13:01:13.690Z,10.35
2022-08-29T13:03:21.946Z,9.35
2022-08-29T13:05:29.030Z,7.68
2022-08-29T13:07:33.646Z,11.88
2022-08-29T13:09:48.462Z,8.65
2022-08-29T13:12:07.536Z,8.90
2022-08-29T13:14:13.045Z,12.68
2022-08-29T13:16:32.888Z,15.25
2022-08-29T13:18:59.895Z,10.90
2022-08-29T13:21:26.173Z,11.80
2022-08-29T13:23:39.093Z,11.98
2022-08-29T13:25:59.747Z,13.38
2022-08-29T13:28:04.517Z,9.88
2022-08-29T13:30:13.257Z,11.35
2022-08-29T13:32:24.789Z,11.45
2022-08-29T13:34:29.500Z,10.02
2022-08-29T13:37:02.247Z,9.70
2022-08-29T13:39:44.754Z,9.10
2022-08-29T13:42:10.555Z,11.63
2022-08-29T13:44:20.740Z,11.32
2022-08-29T13:46:31.251Z,12.35
2022-08-29T13:48:37.651Z,12.90
2022-08-29T13:50:44.217Z,8.95
2022-08-29T13:52:51.477Z,11.60
2022-08-29T13:54:58.334Z,9.63
2022-08-29T13:57:07.363Z,10.85
2022-08-29T13:59:12.880Z,8.52
2022-08-29T14:02:08.182Z,9.75
2022-08-29T14:03:51.085Z,11.70
2022-08-29T14:05:57.467Z,11.43
2022-08-29T14:08:02.935Z,13.45
2022-08-29T14:10:08.649Z,10.45
2022-08-29T14:12:13.691Z,8.75
2022-08-29T14:14:18.276Z,9.85
2022-08-29T14:16:23.490Z,8.55
2022-08-29T14:18:28.068Z,9.38
2022-08-29T14:20:40.262Z,11.68
2022-08-29T14:22:47.397Z,11.93
2022-08-29T14:24:53.944Z,8.35
2022-08-29T14:27:02.163Z,9.93
2022-08-29T14:29:07.238Z,8.63
2022-08-29T14:31:11.725Z,10.27
2022-08-29T14:33:20.158Z,11.90
2022-08-29T14:35:31.589Z,8.15
2022-08-29T14:37:36.811Z,8.63
2022-08-29T14:39:43.449Z,10.43
2022-08-29T14:41:55.986Z,11.02
2022-08-29T14:44:00.374Z,11.00
2022-08-29T14:46:04.791Z,8.73
2022-08-29T14:48:11.460Z,8.25
2022-08-29T14:50:16.053Z,9.30
2022-08-29T14:52:22.964Z,8.70
2022-08-29T14:54:30.060Z,11.02
2022-08-29T14:56:48.088Z,11.00
2022-08-29T14:58:55.391Z,12.55
2022-08-29T15:01:02.022Z,9.40
2022-08-29T15:03:06.381Z,14.75
2022-08-29T15:05:13.490Z,12.50
2022-08-29T15:07:18.684Z,10.45
2022-08-29T15:09:23.502Z,13.23
2022-08-29T15:11:30.405Z,10.10
2022-08-29T15:13:36.940Z,11.73
2022-08-29T15:15:42.476Z,9.40
2022-08-29T15:17:49.408Z,10.38
2022-08-29T15:22:21.321Z,7.38
2022-08-29T15:24:28.578Z,10.20
2022-08-29T15:26:36.442Z,10.65
2022-08-29T15:28:40.921Z,10.30
2022-08-29T15:30:46.866Z,9.40
2022-08-29T15:32:55.092Z,8.55
2022-08-29T15:34:59.829Z,9.32
2022-08-29T15:37:06.430Z,10.50
2022-08-29T15:39:14.260Z,10.90
2022-08-29T15:41:18.690Z,9.30
2022-08-29T15:43:25.644Z,7.15
2022-08-29T15:45:33.297Z,11.20
2022-08-29T15:47:37.818Z,6.85
2022-08-29T15:49:44.774Z,12.90
2022-08-29T15:51:52.842Z,9.40
2022-08-29T15:53:57.876Z,7.05
2022-08-29T15:56:02.270Z,7.55
2022-08-29T15:58:08.552Z,9.07
2022-08-29T16:00:13.723Z,8.68
2022-08-29T16:02:22.751Z,10.35
2022-08-29T16:04:29.754Z,7.90
2022-08-29T16:06:34.319Z,9.13
2022-08-29T16:08:46.822Z,7.32
2022-08-29T16:12:57.528Z,7.70
2022-08-29T16:15:09.491Z,8.07
2022-08-29T16:17:16.467Z,12.63
2022-08-29T16:19:21.638Z,10.80
2022-08-29T16:21:28.474Z,12.75
2022-08-29T16:23:35.083Z,10.93
2022-08-29T16:25:40.648Z,15.25
2022-08-29T16:27:49.903Z,14.77
2022-08-29T16:29:56.549Z,15.45
2022-08-29T16:32:00.847Z,18.20
2022-08-29T16:34:10.824Z,14.57
2022-08-29T16:36:17.699Z,16.67
2022-08-29T16:38:22.924Z,15.80
2022-08-29T16:40:49.414Z,17.98
2022-08-29T16:42:56.042Z,13.48
2022-08-29T16:45:00.981Z,14.77
2022-08-29T16:47:06.951Z,12.77
2022-08-29T16:49:13.275Z,12.43
2022-08-29T16:51:19.325Z,12.18
2022-08-29T16:53:23.893Z,14.77
2022-08-29T16:55:30.810Z,11.80
2022-08-29T16:57:35.478Z,13.43
2022-08-29T16:59:40.908Z,16.08
2022-08-29T17:01:49.384Z,13.70
2022-08-29T17:03:53.833Z,14.43
2022-08-29T17:05:59.825Z,13.32
2022-08-29T17:08:05.806Z,13.55
2022-08-29T17:10:10.302Z,16.10
2022-08-29T17:12:16.473Z,12.52
2022-08-29T17:14:22.829Z,12.88
2022-08-29T17:16:28.362Z,13.65
2022-08-29T17:18:35.191Z,11.68
2022-08-29T17:20:43.979Z,14.98
2022-08-29T17:23:00.955Z,16.05
2022-08-29T17:25:09.959Z,15.68
2022-08-29T17:27:18.246Z,13.90
2022-08-29T17:29:25.930Z,13.25
2022-08-29T17:31:36.848Z,14.25
2022-08-29T17:33:45.513Z,13.90
2022-08-29T17:35:51.930Z,17.13
2022-08-29T17:37:58.580Z,16.25
2022-08-29T17:40:06.732Z,15.20
2022-08-29T17:42:11.039Z,16.45
2022-08-29T17:44:17.979Z,16.70
2022-08-29T17:46:24.281Z,15.48
2022-08-29T17:48:28.666Z,17.02
2022-08-29T17:50:35.737Z,13.95
2022-08-29T17:52:42.120Z,14.95
2022-08-29T17:54:48.837Z,14.00
2022-08-29T17:56:57.646Z,17.45
2022-08-29T17:59:07.040Z,15.18
2022-08-29T18:01:16.005Z,16.17
2022-08-29T18:03:23.490Z,16.08
2022-08-29T18:05:29.995Z,14.18
2022-08-29T18:07:34.654Z,14.40
2022-08-29T18:09:42.633Z,18.08
2022-08-29T18:11:50.484Z,15.55
2022-08-29T18:13:55.032Z,14.85
2022-08-29T18:16:03.024Z,13.23
2022-08-29T18:18:11.467Z,15.45
2022-08-29T18:20:20.382Z,19.48
2022-08-29T18:22:30.563Z,14.75
2022-08-29T18:24:37.059Z,17.52
2022-08-29T18:26:42.709Z,16.25
2022-08-29T18:28:49.568Z,15.18
2022-08-29T18:30:57.710Z,16.10
2022-08-29T18:33:02.078Z,17.45
2022-08-29T18:35:09.019Z,13.68
2022-08-29T18:37:15.244Z,20.10
2022-08-29T18:39:20.582Z,16.38
2022-08-29T18:41:27.237Z,17.02
2022-08-29T18:43:34.280Z,17.60
2022-08-29T18:45:40.262Z,15.05
2022-08-29T18:47:45.864Z,14.95
2022-08-29T18:50:04.438Z,11.88
2022-08-29T18:52:09.173Z,15.98
2022-08-29T18:54:19.106Z,13.15
2022-08-29T18:56:26.947Z,15.50
2022-08-29T18:58:32.587Z,13.85
2022-08-29T19:00:39.510Z,15.63
2022-08-29T19:02:43.923Z,16.42
2022-08-29T19:04:50.540Z,14.20
2022-08-29T19:07:00.691Z,15.35
2022-08-29T19:09:09.738Z,13.48
2022-08-29T19:11:14.524Z,13.95
2022-08-29T19:13:21.719Z,10.98
2022-08-29T19:15:34.535Z,12.18
2022-08-29T19:17:50.076Z,11.98
2022-08-29T19:20:10.578Z,9.30
2022-08-29T19:22:19.054Z,9.20
2022-08-29T19:24:23.373Z,13.25
2022-08-29T19:26:41.133Z,11.68
2022-08-29T19:28:52.167Z,8.77
2022-08-29T19:30:59.890Z,12.63
2022-08-29T19:33:06.704Z,10.73
2022-08-29T19:35:14.994Z,13.40
2022-08-29T19:37:21.920Z,14.35
2022-08-29T19:39:30.124Z,12.07
2022-08-29T19:41:35.508Z,11.38
2022-08-29T19:43:40.119Z,11.43
2022-08-29T19:45:47.372Z,11.60
2022-08-29T19:47:58.750Z,10.13
2022-08-29T19:50:03.928Z,10.43
2022-08-29T19:52:10.579Z,11.75
2022-08-29T19:54:17.595Z,11.18
2022-08-29T19:56:22.387Z,11.55
2022-08-29T19:58:31.253Z,12.27
2022-08-29T20:00:39.065Z,11.18
2022-08-29T20:02:44.620Z,21.48
2022-08-29T20:04:55.947Z,16.25
2022-08-29T20:07:03.161Z,15.38
2022-08-29T20:09:07.893Z,23.77
2022-08-29T20:11:19.159Z,19.25
2022-08-29T20:13:27.355Z,12.48
2022-08-29T20:15:37.850Z,11.93
2022-08-29T20:17:46.371Z,13.98
2022-08-29T20:19:53.550Z,12.10
2022-08-29T20:21:59.212Z,11.48
2022-08-29T20:24:08.174Z,10.60
2022-08-29T20:26:15.704Z,10.98
2022-08-29T20:28:20.940Z,11.15
2022-08-29T20:30:32.823Z,9.20
2022-08-29T20:32:39.644Z,9.15
2022-08-29T20:34:46.522Z,12.52
2022-08-29T20:37:08.450Z,7.88
2022-08-29T20:39:18.817Z,9.20
2022-08-29T20:41:23.469Z,10.50
2022-08-29T20:43:30.454Z,9.85
2022-08-29T20:45:40.823Z,8.55
2022-08-29T20:47:49.905Z,8.65
2022-08-29T20:50:01.405Z,7.60
2022-08-29T20:52:08.430Z,6.80
2022-08-29T20:54:22.920Z,8.88
2022-08-29T20:56:42.203Z,10.63
2022-08-29T20:58:50.656Z,9.68
2022-08-29T21:00:55.513Z,8.05
2022-08-29T21:03:19.073Z,11.70
2022-08-29T21:05:38.699Z,12.60
2022-08-29T21:07:47.040Z,8.85
2022-08-29T21:09:58.300Z,7.72
2022-08-29T21:12:08.479Z,9.10
2022-08-29T21:14:13.443Z,9.48
2022-08-29T21:16:20.143Z,10.93
2022-08-29T21:18:27.202Z,13.07
2022-08-29T21:20:31.818Z,10.02
2022-08-29T21:22:38.387Z,14.80
2022-08-29T21:24:45.292Z,15.20
2022-08-29T21:26:50.177Z,13.05
2022-08-29T21:28:56.686Z,10.05
2022-08-29T21:31:12.368Z,11.02
2022-08-29T21:33:16.901Z,9.15
2022-08-29T21:35:25.115Z,12.10
2022-08-29T21:37:31.330Z,15.50
2022-08-29T21:39:37.958Z,13.00
2022-08-29T21:41:46.639Z,13.30
2022-08-29T21:43:53.596Z,10.93
2022-08-29T21:45:58.149Z,12.07
2022-08-29T21:48:04.983Z,9.32
2022-08-29T21:50:11.894Z,8.98
2022-08-29T21:52:16.564Z,12.38
2022-08-29T21:54:24.200Z,17.00
2022-08-29T21:56:32.154Z,16.48
2022-08-29T21:58:36.617Z,14.38
2022-08-29T22:00:45.159Z,15.63
2022-08-29T22:02:52.329Z,14.38
2022-08-29T22:04:56.730Z,17.05
2022-08-29T22:07:03.731Z,13.38
2022-08-29T22:09:10.121Z,13.35
2022-08-29T22:11:16.472Z,12.25
2022-08-29T22:13:20.926Z,12.32
2022-08-29T22:15:46.846Z,11.43
2022-08-29T22:17:51.226Z,10.70
2022-08-29T22:19:58.382Z,13.40
2022-08-29T22:22:04.754Z,15.75
2022-08-29T22:24:09.454Z,13.15
2022-08-29T22:26:15.856Z,9.85
2022-08-29T22:28:22.422Z,13.27
2022-08-29T22:30:31.923Z,11.45
2022-08-29T22:32:39.150Z,17.35
2022-08-29T22:34:46.594Z,18.88
2022-08-29T22:36:50.917Z,12.57
2022-08-29T22:38:58.566Z,13.65
2022-08-29T22:41:09.167Z,12.40
2022-08-29T22:43:13.589Z,12.25
2022-08-29T22:45:20.564Z,13.50
2022-08-29T22:47:26.860Z,11.80
2022-08-29T22:49:33.273Z,13.40
2022-08-29T22:51:40.066Z,11.50
2022-08-29T22:54:06.254Z,8.50
2022-08-29T22:56:10.809Z,10.93
2022-08-29T22:58:15.392Z,9.38
2022-08-29T23:00:22.779Z,11.52
2022-08-29T23:02:27.804Z,12.30
2022-08-29T23:04:34.387Z,14.02
2022-08-29T23:06:40.797Z,15.13
2022-08-29T23:08:45.074Z,15.27
2022-08-29T23:10:51.558Z,12.25
2022-08-29T23:12:57.890Z,13.50
2022-08-29T23:15:02.631Z,11.40
2022-08-29T23:17:09.197Z,10.55
2022-08-29T23:19:13.814Z,13.32
2022-08-29T23:21:18.170Z,14.60
2022-08-29T23:23:25.042Z,17.10
2022-08-29T23:25:31.403Z,17.38
2022-08-29T23:27:36.739Z,19.70
2022-08-29T23:29:41.791Z,19.33
2022-08-29T23:31:47.409Z,17.50
2022-08-29T23:33:52.583Z,12.80
2022-08-29T23:35:57.573Z,14.95
2022-08-29T23:38:01.824Z,18.25
2022-08-29T23:40:07.990Z,20.30
2022-08-29T23:42:14.404Z,15.90
2022-08-29T23:44:19.317Z,18.67
2022-08-29T23:46:23.992Z,13.20
2022-08-29T23:48:29.051Z,17.45
2022-08-29T23:50:35.278Z,18.70
2022-08-29T23:52:39.921Z,16.15
2022-08-29T23:54:46.196Z,13.82
2022-08-29T23:56:50.743Z,10.45
2022-08-29T23:58:58.505Z,9.63
